sensor_id;sensor_type;location;lat;lon;timestamp;temperature;humidity
14755;DHT22;7469;50.906;6.952;2022-07-22T00:00:00;18.20;99.90
14755;DHT22;7469;50.906;6.952;2022-07-22T00:02:28;18.20;99.90
14755;DHT22;7469;50.906;6.952;2022-07-22T00:04:58;18.20;99.90
14755;DHT22;7469;50.906;6.952;2022-07-22T00:07:26;18.20;99.90
14755;DHT22;7469;50.906;6.952;2022-07-22T00:09:54;18.20;99.90
14755;DHT22;7469;50.906;6.952;2022-07-22T00:12:22;18.20;99.90
14755;DHT22;7469;50.906;6.952;2022-07-22T00:14:50;18.20;99.90
14755;DHT22;7469;50.906;6.952;2022-07-22T00:17:18;18.20;99.90
14755;DHT22;7469;50.906;6.952;2022-07-22T00:19:46;18.20;99.90
14755;DHT22;7469;50.906;6.952;2022-07-22T00:22:15;18.20;99.90
14755;DHT22;7469;50.906;6.952;2022-07-22T00:24:46;18.20;99.90
14755;DHT22;7469;50.906;6.952;2022-07-22T00:27:14;18.10;99.90
14755;DHT22;7469;50.906;6.952;2022-07-22T00:29:42;18.10;99.90
14755;DHT22;7469;50.906;6.952;2022-07-22T00:32:10;18.10;99.90
14755;DHT22;7469;50.906;6.952;2022-07-22T00:34:40;18.10;99.90
14755;DHT22;7469;50.906;6.952;2022-07-22T00:37:08;18.10;99.90
14755;DHT22;7469;50.906;6.952;2022-07-22T00:39:37;18.10;99.90
14755;DHT22;7469;50.906;6.952;2022-07-22T00:42:06;18.10;99.90
14755;DHT22;7469;50.906;6.952;2022-07-22T00:44:35;18.10;99.90
14755;DHT22;7469;50.906;6.952;2022-07-22T00:47:06;18.10;99.90
14755;DHT22;7469;50.906;6.952;2022-07-22T00:49:34;18.10;99.90
14755;DHT22;7469;50.906;6.952;2022-07-22T00:52:03;18.10;99.90
14755;DHT22;7469;50.906;6.952;2022-07-22T00:54:32;18.10;99.90
14755;DHT22;7469;50.906;6.952;2022-07-22T00:57:02;18.00;99.90
14755;DHT22;7469;50.906;6.952;2022-07-22T00:59:30;18.00;99.90
14755;DHT22;7469;50.906;6.952;2022-07-22T01:01:58;18.00;99.90
14755;DHT22;7469;50.906;6.952;2022-07-22T01:04:27;18.00;99.90
14755;DHT22;7469;50.906;6.952;2022-07-22T01:06:55;18.00;99.90
14755;DHT22;7469;50.906;6.952;2022-07-22T01:09:23;18.00;99.90
14755;DHT22;7469;50.906;6.952;2022-07-22T01:11:51;17.90;99.90
14755;DHT22;7469;50.906;6.952;2022-07-22T01:14:20;18.00;99.90
14755;DHT22;7469;50.906;6.952;2022-07-22T01:16:48;18.00;99.90
14755;DHT22;7469;50.906;6.952;2022-07-22T01:19:17;17.90;99.90
14755;DHT22;7469;50.906;6.952;2022-07-22T01:21:47;17.90;99.90
14755;DHT22;7469;50.906;6.952;2022-07-22T01:24:15;17.90;99.90
14755;DHT22;7469;50.906;6.952;2022-07-22T01:26:43;17.80;99.90
14755;DHT22;7469;50.906;6.952;2022-07-22T01:29:11;17.80;99.90
14755;DHT22;7469;50.906;6.952;2022-07-22T01:31:39;17.80;99.90
14755;DHT22;7469;50.906;6.952;2022-07-22T01:34:07;17.80;99.90
14755;DHT22;7469;50.906;6.952;2022-07-22T01:36:35;17.80;99.90
14755;DHT22;7469;50.906;6.952;2022-07-22T01:39:04;17.80;99.90
14755;DHT22;7469;50.906;6.952;2022-07-22T01:41:32;17.80;99.90
14755;DHT22;7469;50.906;6.952;2022-07-22T01:44:00;17.80;99.90
14755;DHT22;7469;50.906;6.952;2022-07-22T01:46:29;17.70;99.90
14755;DHT22;7469;50.906;6.952;2022-07-22T01:48:57;17.70;99.90
14755;DHT22;7469;50.906;6.952;2022-07-22T01:51:26;17.80;99.90
14755;DHT22;7469;50.906;6.952;2022-07-22T01:53:54;17.80;99.90
14755;DHT22;7469;50.906;6.952;2022-07-22T01:56:23;17.70;99.90
14755;DHT22;7469;50.906;6.952;2022-07-22T01:58:51;17.70;99.90
14755;DHT22;7469;50.906;6.952;2022-07-22T02:01:24;17.80;99.90
14755;DHT22;7469;50.906;6.952;2022-07-22T02:03:52;17.80;99.90
14755;DHT22;7469;50.906;6.952;2022-07-22T02:06:36;17.80;99.90
14755;DHT22;7469;50.906;6.952;2022-07-22T02:09:05;17.80;99.90
14755;DHT22;7469;50.906;6.952;2022-07-22T02:11:33;17.80;99.90
14755;DHT22;7469;50.906;6.952;2022-07-22T02:14:01;17.80;99.90
14755;DHT22;7469;50.906;6.952;2022-07-22T02:16:30;17.80;99.90
14755;DHT22;7469;50.906;6.952;2022-07-22T02:18:59;17.70;99.90
14755;DHT22;7469;50.906;6.952;2022-07-22T02:21:28;17.70;99.90
14755;DHT22;7469;50.906;6.952;2022-07-22T02:23:57;17.70;99.90
14755;DHT22;7469;50.906;6.952;2022-07-22T02:26:25;17.70;99.90
14755;DHT22;7469;50.906;6.952;2022-07-22T02:28:53;17.70;99.90
14755;DHT22;7469;50.906;6.952;2022-07-22T02:31:21;17.70;99.90
14755;DHT22;7469;50.906;6.952;2022-07-22T02:33:50;17.70;99.90
14755;DHT22;7469;50.906;6.952;2022-07-22T02:36:18;17.70;99.90
14755;DHT22;7469;50.906;6.952;2022-07-22T02:38:46;17.70;99.90
14755;DHT22;7469;50.906;6.952;2022-07-22T02:41:15;17.70;99.90
14755;DHT22;7469;50.906;6.952;2022-07-22T02:43:43;17.60;99.90
14755;DHT22;7469;50.906;6.952;2022-07-22T02:46:11;17.60;99.90
14755;DHT22;7469;50.906;6.952;2022-07-22T02:48:39;17.60;99.90
14755;DHT22;7469;50.906;6.952;2022-07-22T02:51:07;17.60;99.90
14755;DHT22;7469;50.906;6.952;2022-07-22T02:53:35;17.60;99.90
14755;DHT22;7469;50.906;6.952;2022-07-22T02:56:05;17.60;99.90
14755;DHT22;7469;50.906;6.952;2022-07-22T02:58:34;17.60;99.90
14755;DHT22;7469;50.906;6.952;2022-07-22T03:01:03;17.60;99.90
14755;DHT22;7469;50.906;6.952;2022-07-22T03:03:33;17.60;99.90
14755;DHT22;7469;50.906;6.952;2022-07-22T03:06:01;17.60;99.90
14755;DHT22;7469;50.906;6.952;2022-07-22T03:08:29;17.60;99.90
14755;DHT22;7469;50.906;6.952;2022-07-22T03:10:57;17.60;99.90
14755;DHT22;7469;50.906;6.952;2022-07-22T03:13:25;17.60;99.90
14755;DHT22;7469;50.906;6.952;2022-07-22T03:15:54;17.60;99.90
14755;DHT22;7469;50.906;6.952;2022-07-22T03:18:23;17.60;99.90
14755;DHT22;7469;50.906;6.952;2022-07-22T03:20:50;17.60;99.90
14755;DHT22;7469;50.906;6.952;2022-07-22T03:23:19;17.60;99.90
14755;DHT22;7469;50.906;6.952;2022-07-22T03:25:47;17.60;99.90
14755;DHT22;7469;50.906;6.952;2022-07-22T03:28:16;17.60;99.90
14755;DHT22;7469;50.906;6.952;2022-07-22T03:30:46;17.60;99.90
14755;DHT22;7469;50.906;6.952;2022-07-22T03:33:15;17.60;99.90
14755;DHT22;7469;50.906;6.952;2022-07-22T03:35:43;17.60;99.90
14755;DHT22;7469;50.906;6.952;2022-07-22T03:38:11;17.60;99.90
14755;DHT22;7469;50.906;6.952;2022-07-22T03:40:40;17.60;99.90
14755;DHT22;7469;50.906;6.952;2022-07-22T03:43:08;17.60;99.90
14755;DHT22;7469;50.906;6.952;2022-07-22T03:45:36;17.60;99.90
14755;DHT22;7469;50.906;6.952;2022-07-22T03:48:04;17.60;99.90
14755;DHT22;7469;50.906;6.952;2022-07-22T03:50:34;17.60;99.90
14755;DHT22;7469;50.906;6.952;2022-07-22T03:53:02;17.60;99.90
14755;DHT22;7469;50.906;6.952;2022-07-22T03:55:32;17.60;99.90
14755;DHT22;7469;50.906;6.952;2022-07-22T03:58:00;17.60;99.90
14755;DHT22;7469;50.906;6.952;2022-07-22T04:00:28;17.60;99.90
14755;DHT22;7469;50.906;6.952;2022-07-22T04:02:56;17.70;99.90
14755;DHT22;7469;50.906;6.952;2022-07-22T04:05:24;17.70;99.90
14755;DHT22;7469;50.906;6.952;2022-07-22T04:07:54;17.70;99.90
14755;DHT22;7469;50.906;6.952;2022-07-22T04:10:22;17.70;99.90
14755;DHT22;7469;50.906;6.952;2022-07-22T04:12:50;17.70;99.90
14755;DHT22;7469;50.906;6.952;2022-07-22T04:15:18;17.70;99.90
14755;DHT22;7469;50.906;6.952;2022-07-22T04:17:46;17.70;99.90
14755;DHT22;7469;50.906;6.952;2022-07-22T04:20:14;17.70;99.90
14755;DHT22;7469;50.906;6.952;2022-07-22T04:22:42;17.70;99.90
14755;DHT22;7469;50.906;6.952;2022-07-22T04:25:11;17.70;99.90
14755;DHT22;7469;50.906;6.952;2022-07-22T04:27:39;17.70;99.90
14755;DHT22;7469;50.906;6.952;2022-07-22T04:30:10;17.70;99.90
14755;DHT22;7469;50.906;6.952;2022-07-22T04:32:38;17.70;99.90
14755;DHT22;7469;50.906;6.952;2022-07-22T04:35:06;17.70;99.90
14755;DHT22;7469;50.906;6.952;2022-07-22T04:37:36;17.70;99.90
14755;DHT22;7469;50.906;6.952;2022-07-22T04:40:05;17.80;99.90
14755;DHT22;7469;50.906;6.952;2022-07-22T04:42:35;17.80;99.90
14755;DHT22;7469;50.906;6.952;2022-07-22T04:45:04;17.80;99.90
14755;DHT22;7469;50.906;6.952;2022-07-22T04:47:32;17.80;99.90
14755;DHT22;7469;50.906;6.952;2022-07-22T04:50:00;17.90;99.90
14755;DHT22;7469;50.906;6.952;2022-07-22T04:52:28;17.90;99.90
14755;DHT22;7469;50.906;6.952;2022-07-22T04:54:56;17.90;99.90
14755;DHT22;7469;50.906;6.952;2022-07-22T04:57:26;17.90;99.90
14755;DHT22;7469;50.906;6.952;2022-07-22T04:59:55;17.90;99.90
14755;DHT22;7469;50.906;6.952;2022-07-22T05:02:23;17.90;99.90
14755;DHT22;7469;50.906;6.952;2022-07-22T05:04:51;17.90;99.90
14755;DHT22;7469;50.906;6.952;2022-07-22T05:07:26;17.90;99.90
14755;DHT22;7469;50.906;6.952;2022-07-22T05:09:54;17.90;99.90
14755;DHT22;7469;50.906;6.952;2022-07-22T05:12:22;17.90;99.90
14755;DHT22;7469;50.906;6.952;2022-07-22T05:14:50;17.90;99.90
14755;DHT22;7469;50.906;6.952;2022-07-22T05:17:19;17.90;99.90
14755;DHT22;7469;50.906;6.952;2022-07-22T05:19:47;17.90;99.90
14755;DHT22;7469;50.906;6.952;2022-07-22T05:22:17;17.90;99.90
14755;DHT22;7469;50.906;6.952;2022-07-22T05:24:47;17.90;99.90
14755;DHT22;7469;50.906;6.952;2022-07-22T05:27:15;17.90;99.90
14755;DHT22;7469;50.906;6.952;2022-07-22T05:29:43;17.90;99.90
14755;DHT22;7469;50.906;6.952;2022-07-22T05:32:13;17.90;99.90
14755;DHT22;7469;50.906;6.952;2022-07-22T05:34:45;17.90;99.90
14755;DHT22;7469;50.906;6.952;2022-07-22T05:37:13;17.90;99.90
14755;DHT22;7469;50.906;6.952;2022-07-22T05:39:42;17.90;99.90
14755;DHT22;7469;50.906;6.952;2022-07-22T05:42:10;18.00;99.90
14755;DHT22;7469;50.906;6.952;2022-07-22T05:44:38;18.00;99.90
14755;DHT22;7469;50.906;6.952;2022-07-22T05:47:06;18.00;99.90
14755;DHT22;7469;50.906;6.952;2022-07-22T05:49:34;18.00;99.90
14755;DHT22;7469;50.906;6.952;2022-07-22T05:52:11;18.00;99.90
14755;DHT22;7469;50.906;6.952;2022-07-22T05:54:39;18.00;99.90
14755;DHT22;7469;50.906;6.952;2022-07-22T05:57:07;18.00;99.90
14755;DHT22;7469;50.906;6.952;2022-07-22T05:59:37;18.10;99.90
14755;DHT22;7469;50.906;6.952;2022-07-22T06:02:05;18.10;99.90
14755;DHT22;7469;50.906;6.952;2022-07-22T06:04:33;18.20;99.90
14755;DHT22;7469;50.906;6.952;2022-07-22T06:07:01;18.20;99.90
14755;DHT22;7469;50.906;6.952;2022-07-22T06:09:31;18.30;99.90
14755;DHT22;7469;50.906;6.952;2022-07-22T06:11:59;18.40;99.90
14755;DHT22;7469;50.906;6.952;2022-07-22T06:14:28;18.50;99.90
14755;DHT22;7469;50.906;6.952;2022-07-22T06:16:56;18.50;99.90
14755;DHT22;7469;50.906;6.952;2022-07-22T06:19:24;18.60;99.90
14755;DHT22;7469;50.906;6.952;2022-07-22T06:21:52;18.60;99.90
14755;DHT22;7469;50.906;6.952;2022-07-22T06:24:20;18.70;99.90
14755;DHT22;7469;50.906;6.952;2022-07-22T06:26:54;18.70;99.90
14755;DHT22;7469;50.906;6.952;2022-07-22T06:29:22;18.80;99.90
14755;DHT22;7469;50.906;6.952;2022-07-22T06:31:53;18.80;99.90
14755;DHT22;7469;50.906;6.952;2022-07-22T06:34:22;18.80;99.90
14755;DHT22;7469;50.906;6.952;2022-07-22T06:36:50;18.80;99.90
14755;DHT22;7469;50.906;6.952;2022-07-22T06:39:18;18.90;99.90
14755;DHT22;7469;50.906;6.952;2022-07-22T06:41:46;18.90;99.90
14755;DHT22;7469;50.906;6.952;2022-07-22T06:44:16;19.00;99.90
14755;DHT22;7469;50.906;6.952;2022-07-22T06:46:44;19.00;99.90
14755;DHT22;7469;50.906;6.952;2022-07-22T06:49:14;19.00;99.90
14755;DHT22;7469;50.906;6.952;2022-07-22T06:51:44;19.00;99.90
14755;DHT22;7469;50.906;6.952;2022-07-22T06:54:12;19.10;99.90
14755;DHT22;7469;50.906;6.952;2022-07-22T06:56:40;19.10;99.90
14755;DHT22;7469;50.906;6.952;2022-07-22T06:59:08;19.10;99.90
14755;DHT22;7469;50.906;6.952;2022-07-22T07:01:38;19.20;99.90
14755;DHT22;7469;50.906;6.952;2022-07-22T07:04:06;19.20;99.90
14755;DHT22;7469;50.906;6.952;2022-07-22T07:06:34;19.20;99.90
14755;DHT22;7469;50.906;6.952;2022-07-22T07:09:02;19.20;99.90
14755;DHT22;7469;50.906;6.952;2022-07-22T07:11:31;19.30;99.90
14755;DHT22;7469;50.906;6.952;2022-07-22T07:13:59;19.20;99.90
14755;DHT22;7469;50.906;6.952;2022-07-22T07:16:27;19.20;99.90
14755;DHT22;7469;50.906;6.952;2022-07-22T07:18:56;19.20;99.90
14755;DHT22;7469;50.906;6.952;2022-07-22T07:21:25;19.10;99.90
14755;DHT22;7469;50.906;6.952;2022-07-22T07:23:53;19.10;99.90
14755;DHT22;7469;50.906;6.952;2022-07-22T07:26:22;19.10;99.90
14755;DHT22;7469;50.906;6.952;2022-07-22T07:28:50;19.10;99.90
14755;DHT22;7469;50.906;6.952;2022-07-22T07:31:18;19.10;99.90
14755;DHT22;7469;50.906;6.952;2022-07-22T07:33:46;19.00;99.90
14755;DHT22;7469;50.906;6.952;2022-07-22T07:36:16;19.10;99.90
14755;DHT22;7469;50.906;6.952;2022-07-22T07:38:44;19.10;99.90
14755;DHT22;7469;50.906;6.952;2022-07-22T07:41:12;19.10;99.90
14755;DHT22;7469;50.906;6.952;2022-07-22T07:43:40;19.10;99.90
14755;DHT22;7469;50.906;6.952;2022-07-22T07:46:12;19.10;99.90
14755;DHT22;7469;50.906;6.952;2022-07-22T07:48:44;19.10;99.90
14755;DHT22;7469;50.906;6.952;2022-07-22T07:51:14;19.10;99.90
14755;DHT22;7469;50.906;6.952;2022-07-22T07:53:43;19.20;99.90
14755;DHT22;7469;50.906;6.952;2022-07-22T07:56:13;19.20;99.90
14755;DHT22;7469;50.906;6.952;2022-07-22T07:58:41;19.30;99.90
14755;DHT22;7469;50.906;6.952;2022-07-22T08:01:29;19.30;99.90
14755;DHT22;7469;50.906;6.952;2022-07-22T08:04:17;19.40;99.90
14755;DHT22;7469;50.906;6.952;2022-07-22T08:07:01;19.40;99.90
14755;DHT22;7469;50.906;6.952;2022-07-22T08:09:32;19.40;99.90
14755;DHT22;7469;50.906;6.952;2022-07-22T08:12:03;19.50;99.90
14755;DHT22;7469;50.906;6.952;2022-07-22T08:14:31;19.50;99.90
14755;DHT22;7469;50.906;6.952;2022-07-22T08:16:59;19.60;99.90
14755;DHT22;7469;50.906;6.952;2022-07-22T08:19:27;19.70;99.90
14755;DHT22;7469;50.906;6.952;2022-07-22T08:21:56;19.70;99.90
14755;DHT22;7469;50.906;6.952;2022-07-22T08:24:28;19.80;99.90
14755;DHT22;7469;50.906;6.952;2022-07-22T08:26:58;19.80;99.90
14755;DHT22;7469;50.906;6.952;2022-07-22T08:29:26;19.90;99.90
14755;DHT22;7469;50.906;6.952;2022-07-22T08:31:54;19.90;99.90
14755;DHT22;7469;50.906;6.952;2022-07-22T08:34:22;20.00;99.90
14755;DHT22;7469;50.906;6.952;2022-07-22T08:36:50;20.00;99.90
14755;DHT22;7469;50.906;6.952;2022-07-22T08:39:18;20.10;99.90
14755;DHT22;7469;50.906;6.952;2022-07-22T08:41:48;20.30;99.90
14755;DHT22;7469;50.906;6.952;2022-07-22T08:44:19;20.40;99.90
14755;DHT22;7469;50.906;6.952;2022-07-22T08:46:47;20.60;99.90
14755;DHT22;7469;50.906;6.952;2022-07-22T08:49:16;20.80;99.90
14755;DHT22;7469;50.906;6.952;2022-07-22T08:51:44;21.00;99.90
14755;DHT22;7469;50.906;6.952;2022-07-22T08:54:13;21.30;99.90
14755;DHT22;7469;50.906;6.952;2022-07-22T08:56:46;21.50;99.90
14755;DHT22;7469;50.906;6.952;2022-07-22T08:59:14;21.80;99.90
14755;DHT22;7469;50.906;6.952;2022-07-22T09:02:05;22.10;99.90
14755;DHT22;7469;50.906;6.952;2022-07-22T09:04:50;22.50;99.90
14755;DHT22;7469;50.906;6.952;2022-07-22T09:07:27;23.00;99.90
14755;DHT22;7469;50.906;6.952;2022-07-22T09:09:56;23.20;99.90
14755;DHT22;7469;50.906;6.952;2022-07-22T09:12:26;23.40;99.90
14755;DHT22;7469;50.906;6.952;2022-07-22T09:14:58;23.70;99.90
14755;DHT22;7469;50.906;6.952;2022-07-22T09:17:30;23.90;99.90
14755;DHT22;7469;50.906;6.952;2022-07-22T09:19:59;24.00;99.90
14755;DHT22;7469;50.906;6.952;2022-07-22T09:22:36;24.10;99.90
14755;DHT22;7469;50.906;6.952;2022-07-22T09:25:22;24.20;99.90
14755;DHT22;7469;50.906;6.952;2022-07-22T09:27:55;24.40;99.90
14755;DHT22;7469;50.906;6.952;2022-07-22T09:30:25;24.40;99.90
14755;DHT22;7469;50.906;6.952;2022-07-22T09:32:56;24.50;99.90
14755;DHT22;7469;50.906;6.952;2022-07-22T09:35:28;24.60;99.90
14755;DHT22;7469;50.906;6.952;2022-07-22T09:37:57;24.70;99.90
14755;DHT22;7469;50.906;6.952;2022-07-22T09:40:27;24.60;99.90
14755;DHT22;7469;50.906;6.952;2022-07-22T09:42:58;24.50;99.90
14755;DHT22;7469;50.906;6.952;2022-07-22T09:45:28;24.30;99.90
14755;DHT22;7469;50.906;6.952;2022-07-22T09:47:59;24.20;99.90
14755;DHT22;7469;50.906;6.952;2022-07-22T09:50:29;23.90;99.90
14755;DHT22;7469;50.906;6.952;2022-07-22T09:52:58;23.70;99.90
14755;DHT22;7469;50.906;6.952;2022-07-22T09:55:30;23.70;99.90
14755;DHT22;7469;50.906;6.952;2022-07-22T09:58:00;23.70;99.90
14755;DHT22;7469;50.906;6.952;2022-07-22T10:00:28;23.70;99.90
14755;DHT22;7469;50.906;6.952;2022-07-22T10:03:00;23.80;99.90
14755;DHT22;7469;50.906;6.952;2022-07-22T10:05:30;23.90;99.90
14755;DHT22;7469;50.906;6.952;2022-07-22T10:08:00;24.10;99.90
14755;DHT22;7469;50.906;6.952;2022-07-22T10:10:30;24.10;99.90
14755;DHT22;7469;50.906;6.952;2022-07-22T10:13:00;24.20;99.90
14755;DHT22;7469;50.906;6.952;2022-07-22T10:15:30;24.30;99.90
14755;DHT22;7469;50.906;6.952;2022-07-22T10:18:05;24.50;99.90
14755;DHT22;7469;50.906;6.952;2022-07-22T10:20:35;24.50;99.90
14755;DHT22;7469;50.906;6.952;2022-07-22T10:23:04;24.50;99.90
14755;DHT22;7469;50.906;6.952;2022-07-22T10:25:51;24.50;99.90
14755;DHT22;7469;50.906;6.952;2022-07-22T10:28:25;24.50;99.90
14755;DHT22;7469;50.906;6.952;2022-07-22T10:30:54;24.50;99.90
14755;DHT22;7469;50.906;6.952;2022-07-22T10:33:36;24.50;99.90
14755;DHT22;7469;50.906;6.952;2022-07-22T10:36:06;24.50;99.90
14755;DHT22;7469;50.906;6.952;2022-07-22T10:38:35;24.60;99.90
14755;DHT22;7469;50.906;6.952;2022-07-22T10:41:05;24.90;99.90
14755;DHT22;7469;50.906;6.952;2022-07-22T10:43:46;25.20;99.90
14755;DHT22;7469;50.906;6.952;2022-07-22T10:46:15;25.30;99.90
14755;DHT22;7469;50.906;6.952;2022-07-22T10:48:47;25.10;99.90
14755;DHT22;7469;50.906;6.952;2022-07-22T10:51:17;25.00;99.90
14755;DHT22;7469;50.906;6.952;2022-07-22T10:53:52;25.10;99.90
14755;DHT22;7469;50.906;6.952;2022-07-22T10:56:26;25.40;99.90
14755;DHT22;7469;50.906;6.952;2022-07-22T10:59:07;25.60;99.90
14755;DHT22;7469;50.906;6.952;2022-07-22T11:01:37;25.80;99.90
14755;DHT22;7469;50.906;6.952;2022-07-22T11:04:14;26.00;99.90
14755;DHT22;7469;50.906;6.952;2022-07-22T11:06:45;26.30;99.90
14755;DHT22;7469;50.906;6.952;2022-07-22T11:09:16;26.70;99.90
14755;DHT22;7469;50.906;6.952;2022-07-22T11:11:48;27.00;99.90
14755;DHT22;7469;50.906;6.952;2022-07-22T11:14:28;27.60;99.70
14755;DHT22;7469;50.906;6.952;2022-07-22T11:16:59;27.80;98.80
14755;DHT22;7469;50.906;6.952;2022-07-22T11:19:30;27.60;97.80
14755;DHT22;7469;50.906;6.952;2022-07-22T11:22:00;27.40;98.10
14755;DHT22;7469;50.906;6.952;2022-07-22T11:24:32;27.50;98.10
14755;DHT22;7469;50.906;6.952;2022-07-22T11:27:02;27.50;97.50
14755;DHT22;7469;50.906;6.952;2022-07-22T11:29:33;27.50;97.40
14755;DHT22;7469;50.906;6.952;2022-07-22T11:32:03;27.50;97.30
14755;DHT22;7469;50.906;6.952;2022-07-22T11:34:35;27.40;96.80
14755;DHT22;7469;50.906;6.952;2022-07-22T11:37:04;27.70;96.40
14755;DHT22;7469;50.906;6.952;2022-07-22T11:39:32;27.80;96.10
14755;DHT22;7469;50.906;6.952;2022-07-22T11:42:00;27.80;95.70
14755;DHT22;7469;50.906;6.952;2022-07-22T11:44:30;27.70;95.40
14755;DHT22;7469;50.906;6.952;2022-07-22T11:46:58;27.70;95.40
14755;DHT22;7469;50.906;6.952;2022-07-22T11:49:29;27.60;95.50
14755;DHT22;7469;50.906;6.952;2022-07-22T11:51:58;27.50;95.40
14755;DHT22;7469;50.906;6.952;2022-07-22T11:54:26;27.50;95.30
14755;DHT22;7469;50.906;6.952;2022-07-22T11:56:54;27.60;95.00
14755;DHT22;7469;50.906;6.952;2022-07-22T11:59:23;27.70;94.60
14755;DHT22;7469;50.906;6.952;2022-07-22T12:01:51;28.00;94.30
14755;DHT22;7469;50.906;6.952;2022-07-22T12:04:22;28.20;93.80
14755;DHT22;7469;50.906;6.952;2022-07-22T12:06:51;28.20;93.20
14755;DHT22;7469;50.906;6.952;2022-07-22T12:09:25;28.00;93.20
14755;DHT22;7469;50.906;6.952;2022-07-22T12:11:55;27.60;93.50
14755;DHT22;7469;50.906;6.952;2022-07-22T12:14:26;27.30;93.60
14755;DHT22;7469;50.906;6.952;2022-07-22T12:16:56;27.00;93.90
14755;DHT22;7469;50.906;6.952;2022-07-22T12:19:28;27.00;94.10
14755;DHT22;7469;50.906;6.952;2022-07-22T12:22:00;27.10;94.10
14755;DHT22;7469;50.906;6.952;2022-07-22T12:24:33;26.90;93.80
14755;DHT22;7469;50.906;6.952;2022-07-22T12:27:03;26.80;94.20
14755;DHT22;7469;50.906;6.952;2022-07-22T12:29:41;26.80;94.10
14755;DHT22;7469;50.906;6.952;2022-07-22T12:32:15;27.00;94.10
14755;DHT22;7469;50.906;6.952;2022-07-22T12:34:46;27.20;93.80
14755;DHT22;7469;50.906;6.952;2022-07-22T12:37:16;27.20;93.50
14755;DHT22;7469;50.906;6.952;2022-07-22T12:40:00;27.20;93.50
14755;DHT22;7469;50.906;6.952;2022-07-22T12:42:31;27.20;93.30
14755;DHT22;7469;50.906;6.952;2022-07-22T12:45:02;27.10;93.30
14755;DHT22;7469;50.906;6.952;2022-07-22T12:47:45;27.10;93.10
14755;DHT22;7469;50.906;6.952;2022-07-22T12:50:23;27.30;92.90
14755;DHT22;7469;50.906;6.952;2022-07-22T12:52:52;27.40;92.60
14755;DHT22;7469;50.906;6.952;2022-07-22T12:55:43;27.40;92.20
14755;DHT22;7469;50.906;6.952;2022-07-22T12:58:13;27.20;92.30
14755;DHT22;7469;50.906;6.952;2022-07-22T13:00:44;27.10;92.80
14755;DHT22;7469;50.906;6.952;2022-07-22T13:03:12;27.20;93.00
14755;DHT22;7469;50.906;6.952;2022-07-22T13:05:41;27.40;92.50
14755;DHT22;7469;50.906;6.952;2022-07-22T13:08:09;27.30;92.30
14755;DHT22;7469;50.906;6.952;2022-07-22T13:10:40;27.20;92.20
14755;DHT22;7469;50.906;6.952;2022-07-22T13:13:08;27.20;92.40
14755;DHT22;7469;50.906;6.952;2022-07-22T13:15:36;27.30;92.20
14755;DHT22;7469;50.906;6.952;2022-07-22T13:18:05;27.40;92.10
14755;DHT22;7469;50.906;6.952;2022-07-22T13:20:33;27.30;92.10
14755;DHT22;7469;50.906;6.952;2022-07-22T13:23:01;27.20;92.50
14755;DHT22;7469;50.906;6.952;2022-07-22T13:25:29;27.10;92.40
14755;DHT22;7469;50.906;6.952;2022-07-22T13:28:00;27.00;92.50
14755;DHT22;7469;50.906;6.952;2022-07-22T13:30:28;27.10;92.60
14755;DHT22;7469;50.906;6.952;2022-07-22T13:32:56;27.00;92.60
14755;DHT22;7469;50.906;6.952;2022-07-22T13:35:25;27.20;92.50
14755;DHT22;7469;50.906;6.952;2022-07-22T13:37:53;27.20;92.40
14755;DHT22;7469;50.906;6.952;2022-07-22T13:40:21;27.30;92.20
14755;DHT22;7469;50.906;6.952;2022-07-22T13:42:49;27.20;92.00
14755;DHT22;7469;50.906;6.952;2022-07-22T13:45:18;27.10;91.80
14755;DHT22;7469;50.906;6.952;2022-07-22T13:47:46;27.30;92.00
14755;DHT22;7469;50.906;6.952;2022-07-22T13:50:14;27.70;91.70
14755;DHT22;7469;50.906;6.952;2022-07-22T13:52:43;27.90;91.50
14755;DHT22;7469;50.906;6.952;2022-07-22T13:55:13;28.10;91.20
14755;DHT22;7469;50.906;6.952;2022-07-22T13:57:41;28.10;90.50
14755;DHT22;7469;50.906;6.952;2022-07-22T14:00:10;27.70;90.80
14755;DHT22;7469;50.906;6.952;2022-07-22T14:02:43;27.30;90.80
14755;DHT22;7469;50.906;6.952;2022-07-22T14:05:11;27.10;91.20
14755;DHT22;7469;50.906;6.952;2022-07-22T14:07:41;27.00;91.50
14755;DHT22;7469;50.906;6.952;2022-07-22T14:10:10;27.00;91.70
14755;DHT22;7469;50.906;6.952;2022-07-22T14:12:38;27.00;91.60
14755;DHT22;7469;50.906;6.952;2022-07-22T14:15:08;27.20;91.50
14755;DHT22;7469;50.906;6.952;2022-07-22T14:17:37;27.30;91.20
14755;DHT22;7469;50.906;6.952;2022-07-22T14:20:08;27.20;91.10
14755;DHT22;7469;50.906;6.952;2022-07-22T14:22:37;27.10;90.90
14755;DHT22;7469;50.906;6.952;2022-07-22T14:25:05;27.00;90.80
14755;DHT22;7469;50.906;6.952;2022-07-22T14:27:34;26.90;91.00
14755;DHT22;7469;50.906;6.952;2022-07-22T14:30:03;27.00;91.30
14755;DHT22;7469;50.906;6.952;2022-07-22T14:32:31;27.20;91.20
14755;DHT22;7469;50.906;6.952;2022-07-22T14:34:59;27.50;90.80
14755;DHT22;7469;50.906;6.952;2022-07-22T14:37:30;27.60;90.50
14755;DHT22;7469;50.906;6.952;2022-07-22T14:39:57;27.60;90.10
14755;DHT22;7469;50.906;6.952;2022-07-22T14:42:26;27.80;89.70
14755;DHT22;7469;50.906;6.952;2022-07-22T14:44:54;28.10;88.80
14755;DHT22;7469;50.906;6.952;2022-07-22T14:47:22;28.20;88.40
14755;DHT22;7469;50.906;6.952;2022-07-22T14:49:51;28.30;88.10
14755;DHT22;7469;50.906;6.952;2022-07-22T14:52:19;28.10;88.40
14755;DHT22;7469;50.906;6.952;2022-07-22T14:54:49;27.90;88.40
14755;DHT22;7469;50.906;6.952;2022-07-22T14:57:17;27.70;88.90
14755;DHT22;7469;50.906;6.952;2022-07-22T14:59:45;27.50;88.50
14755;DHT22;7469;50.906;6.952;2022-07-22T15:02:13;27.30;89.10
14755;DHT22;7469;50.906;6.952;2022-07-22T15:04:41;27.20;89.40
14755;DHT22;7469;50.906;6.952;2022-07-22T15:07:09;27.20;89.10
14755;DHT22;7469;50.906;6.952;2022-07-22T15:09:37;27.20;89.00
14755;DHT22;7469;50.906;6.952;2022-07-22T15:12:07;27.30;89.30
14755;DHT22;7469;50.906;6.952;2022-07-22T15:14:54;27.30;89.30
14755;DHT22;7469;50.906;6.952;2022-07-22T15:17:22;27.30;88.90
14755;DHT22;7469;50.906;6.952;2022-07-22T15:19:50;27.30;88.70
14755;DHT22;7469;50.906;6.952;2022-07-22T15:22:18;27.30;88.50
14755;DHT22;7469;50.906;6.952;2022-07-22T15:24:48;27.30;88.20
14755;DHT22;7469;50.906;6.952;2022-07-22T15:27:17;27.20;87.80
14755;DHT22;7469;50.906;6.952;2022-07-22T15:29:52;27.20;87.50
14755;DHT22;7469;50.906;6.952;2022-07-22T15:32:20;27.20;87.60
14755;DHT22;7469;50.906;6.952;2022-07-22T15:34:48;27.20;87.50
14755;DHT22;7469;50.906;6.952;2022-07-22T15:37:16;27.10;87.70
14755;DHT22;7469;50.906;6.952;2022-07-22T15:39:49;27.00;88.20
14755;DHT22;7469;50.906;6.952;2022-07-22T15:42:19;26.90;87.80
14755;DHT22;7469;50.906;6.952;2022-07-22T15:44:47;26.70;88.60
14755;DHT22;7469;50.906;6.952;2022-07-22T15:47:15;26.60;88.60
14755;DHT22;7469;50.906;6.952;2022-07-22T15:49:43;26.40;88.60
14755;DHT22;7469;50.906;6.952;2022-07-22T15:52:19;26.30;89.00
14755;DHT22;7469;50.906;6.952;2022-07-22T15:54:48;26.30;89.10
14755;DHT22;7469;50.906;6.952;2022-07-22T15:57:19;26.20;89.00
14755;DHT22;7469;50.906;6.952;2022-07-22T16:00:06;26.30;88.70